IVAO ES Tour IFR-A 2013 Etapa 1

IVAO ES Tour IFR-A 2013 Etapa 1

Bilbao ( LEBB ) – Granada ( LEGR )

Datos generales del vuelo
 Fecha 19-11-2013  Avión  B737-800 winglets
 Ruta  AMTOS UL864 NEA UN864 VULPE  Nivel de vuelo FL360
 Origen LEBB  Destino  LEGR
 Velocidad M0.785  Distancia 450Nm
 Distancia real  369Nm ETE 01:05
 ETA 10:40  FOB 02:30
 Hora salida 09:25Z Hora llegada 10:40Z
 Pax 149 TOW 65289Kg
 MTOW 78471Kg Fuel 7832Kg
 Fuel utilizado 3589Kg ZFW 57456Kg
Peso carga 4881Kg Peso pasaje 11165Kg
V1 128Knots Vr 138Knots
 V2 147Knots  Vref 145Knots

 

Datos LEBB

Metar: LEBB 190830Z VRB02KT 2500 RA FEW004 SCT012 BKN020 10/09 Q1013 TEMPO SHRA BKN025TCU
Salida: AMTO3C

Datos LEGR

Metar: LEGR 191000Z 30004KT 240V330 CAVOK 09/06 Q1014
Llegada: VULPE1D
App: Vectorizada

 

 

 

Deja una respuesta